Feldkirch, Austria
Current Conditions -  °F | °C
As of 12:50 PM on Thursday 27 Nov 2014 (Local Time) from LSZR Reporting Station
Overcast Overcast  
Wind Chill: 43°   Ceiling: 300
Heat Index: 43°   Visibility: 2.1mi
Dew Point: 43°   Wind: 2mph
Humidity: 100%   Direction: NA
Pressure: 29.8"   Gusts: NA
Location:  47.25°N, 9.59°E
Report Text: LSZR 271050Z VRB02KT 3500 OVC003 06/06 Q1009 NOSIG RMK F
Loading
Personal Weather Stations






























Interactive Weather Map New forecast layout! Learn more

10-Day Weather Forecast

Advertisements
Track Severe Weather on mobile